sensor_id;sensor_type;location;lat;lon;timestamp;P1;durP1;ratioP1;P2;durP2;ratioP2
24547;SDS011;12713;51.624;4.924;2023-03-12T00:00:03;10.43;;;5.05;;
24547;SDS011;12713;51.624;4.924;2023-03-12T00:02:32;11.02;;;5.78;;
24547;SDS011;12713;51.624;4.924;2023-03-12T00:04:58;8.35;;;4.80;;
24547;SDS011;12713;51.624;4.924;2023-03-12T00:07:24;10.48;;;5.13;;
24547;SDS011;12713;51.624;4.924;2023-03-12T00:09:50;9.18;;;4.57;;
24547;SDS011;12713;51.624;4.924;2023-03-12T00:12:16;11.73;;;4.50;;
24547;SDS011;12713;51.624;4.924;2023-03-12T00:14:42;9.15;;;4.85;;
24547;SDS011;12713;51.624;4.924;2023-03-12T00:19:55;10.93;;;5.22;;
24547;SDS011;12713;51.624;4.924;2023-03-12T00:22:22;8.48;;;4.80;;
24547;SDS011;12713;51.624;4.924;2023-03-12T00:24:50;8.75;;;4.85;;
24547;SDS011;12713;51.624;4.924;2023-03-12T00:27:16;9.18;;;4.10;;
24547;SDS011;12713;51.624;4.924;2023-03-12T00:29:42;11.63;;;4.38;;
24547;SDS011;12713;51.624;4.924;2023-03-12T00:32:08;11.27;;;4.68;;
24547;SDS011;12713;51.624;4.924;2023-03-12T00:34:34;13.95;;;3.83;;
24547;SDS011;12713;51.624;4.924;2023-03-12T00:37:00;6.70;;;4.38;;
24547;SDS011;12713;51.624;4.924;2023-03-12T00:39:26;11.75;;;5.03;;
24547;SDS011;12713;51.624;4.924;2023-03-12T00:41:52;12.23;;;3.70;;
24547;SDS011;12713;51.624;4.924;2023-03-12T00:44:18;5.97;;;3.75;;
24547;SDS011;12713;51.624;4.924;2023-03-12T00:46:44;6.47;;;3.17;;
24547;SDS011;12713;51.624;4.924;2023-03-12T00:49:10;7.80;;;3.63;;
24547;SDS011;12713;51.624;4.924;2023-03-12T00:51:37;11.57;;;3.30;;
24547;SDS011;12713;51.624;4.924;2023-03-12T00:54:03;9.07;;;3.30;;
24547;SDS011;12713;51.624;4.924;2023-03-12T00:56:29;6.28;;;3.50;;
24547;SDS011;12713;51.624;4.924;2023-03-12T00:58:55;12.93;;;3.50;;
24547;SDS011;12713;51.624;4.924;2023-03-12T01:01:21;7.38;;;3.03;;
24547;SDS011;12713;51.624;4.924;2023-03-12T01:03:48;6.38;;;3.20;;
24547;SDS011;12713;51.624;4.924;2023-03-12T01:06:16;8.85;;;2.80;;
24547;SDS011;12713;51.624;4.924;2023-03-12T01:08:42;6.65;;;3.25;;
24547;SDS011;12713;51.624;4.924;2023-03-12T01:11:15;7.30;;;3.17;;
24547;SDS011;12713;51.624;4.924;2023-03-12T01:13:41;6.28;;;3.50;;
24547;SDS011;12713;51.624;4.924;2023-03-12T01:16:07;10.05;;;3.28;;
24547;SDS011;12713;51.624;4.924;2023-03-12T01:18:34;8.20;;;2.80;;
24547;SDS011;12713;51.624;4.924;2023-03-12T01:21:00;6.13;;;3.15;;
24547;SDS011;12713;51.624;4.924;2023-03-12T01:23:26;10.60;;;3.22;;
24547;SDS011;12713;51.624;4.924;2023-03-12T01:25:52;7.60;;;2.85;;
24547;SDS011;12713;51.624;4.924;2023-03-12T01:28:24;7.22;;;3.63;;
24547;SDS011;12713;51.624;4.924;2023-03-12T01:30:50;10.07;;;3.20;;
24547;SDS011;12713;51.624;4.924;2023-03-12T01:33:17;6.68;;;2.97;;
24547;SDS011;12713;51.624;4.924;2023-03-12T01:35:43;10.77;;;3.38;;
24547;SDS011;12713;51.624;4.924;2023-03-12T01:38:11;7.97;;;3.63;;
24547;SDS011;12713;51.624;4.924;2023-03-12T01:40:37;10.60;;;3.65;;
24547;SDS011;12713;51.624;4.924;2023-03-12T01:45:50;10.02;;;3.22;;
24547;SDS011;12713;51.624;4.924;2023-03-12T01:48:24;9.20;;;3.72;;
24547;SDS011;12713;51.624;4.924;2023-03-12T01:50:50;6.65;;;3.00;;
24547;SDS011;12713;51.624;4.924;2023-03-12T01:53:16;6.10;;;3.13;;
24547;SDS011;12713;51.624;4.924;2023-03-12T01:55:42;7.03;;;3.20;;
24547;SDS011;12713;51.624;4.924;2023-03-12T01:58:08;6.25;;;3.03;;
24547;SDS011;12713;51.624;4.924;2023-03-12T02:00:35;7.10;;;3.53;;
24547;SDS011;12713;51.624;4.924;2023-03-12T02:03:03;11.35;;;3.42;;
24547;SDS011;12713;51.624;4.924;2023-03-12T02:05:39;8.55;;;3.40;;
24547;SDS011;12713;51.624;4.924;2023-03-12T02:08:08;5.85;;;3.30;;
24547;SDS011;12713;51.624;4.924;2023-03-12T02:10:34;11.93;;;3.40;;
24547;SDS011;12713;51.624;4.924;2023-03-12T02:13:00;9.35;;;3.17;;
24547;SDS011;12713;51.624;4.924;2023-03-12T02:15:26;10.90;;;3.47;;
24547;SDS011;12713;51.624;4.924;2023-03-12T02:17:53;9.10;;;4.40;;
24547;SDS011;12713;51.624;4.924;2023-03-12T02:21:03;9.13;;;3.28;;
24547;SDS011;12713;51.624;4.924;2023-03-12T02:23:09;10.52;;;3.92;;
24547;SDS011;12713;51.624;4.924;2023-03-12T02:25:41;8.75;;;3.80;;
24547;SDS011;12713;51.624;4.924;2023-03-12T02:28:09;8.50;;;3.47;;
24547;SDS011;12713;51.624;4.924;2023-03-12T02:30:38;10.77;;;4.05;;
24547;SDS011;12713;51.624;4.924;2023-03-12T02:33:06;10.80;;;3.58;;
24547;SDS011;12713;51.624;4.924;2023-03-12T02:35:32;8.80;;;3.75;;
24547;SDS011;12713;51.624;4.924;2023-03-12T02:37:58;10.40;;;4.03;;
24547;SDS011;12713;51.624;4.924;2023-03-12T02:40:28;10.77;;;4.25;;
24547;SDS011;12713;51.624;4.924;2023-03-12T02:42:56;9.90;;;4.13;;
24547;SDS011;12713;51.624;4.924;2023-03-12T02:45:23;12.75;;;4.45;;
24547;SDS011;12713;51.624;4.924;2023-03-12T02:47:49;11.63;;;3.80;;
24547;SDS011;12713;51.624;4.924;2023-03-12T02:50:16;7.88;;;4.35;;
24547;SDS011;12713;51.624;4.924;2023-03-12T02:52:42;10.20;;;4.35;;
24547;SDS011;12713;51.624;4.924;2023-03-12T02:55:08;8.27;;;4.25;;
24547;SDS011;12713;51.624;4.924;2023-03-12T02:57:34;10.63;;;4.28;;
24547;SDS011;12713;51.624;4.924;2023-03-12T03:00:07;8.82;;;4.20;;
24547;SDS011;12713;51.624;4.924;2023-03-12T03:02:37;10.80;;;4.25;;
24547;SDS011;12713;51.624;4.924;2023-03-12T03:05:03;9.18;;;4.45;;
24547;SDS011;12713;51.624;4.924;2023-03-12T03:07:29;13.23;;;4.82;;
24547;SDS011;12713;51.624;4.924;2023-03-12T03:09:55;6.95;;;4.50;;
24547;SDS011;12713;51.624;4.924;2023-03-12T03:12:27;12.85;;;4.35;;
24547;SDS011;12713;51.624;4.924;2023-03-12T03:14:53;7.95;;;4.75;;
24547;SDS011;12713;51.624;4.924;2023-03-12T03:17:21;9.70;;;4.50;;
24547;SDS011;12713;51.624;4.924;2023-03-12T03:19:48;11.93;;;5.28;;
24547;SDS011;12713;51.624;4.924;2023-03-12T03:22:14;7.90;;;5.03;;
24547;SDS011;12713;51.624;4.924;2023-03-12T03:24:40;11.63;;;4.93;;
24547;SDS011;12713;51.624;4.924;2023-03-12T03:27:06;8.48;;;4.47;;
24547;SDS011;12713;51.624;4.924;2023-03-12T03:29:32;11.07;;;4.95;;
24547;SDS011;12713;51.624;4.924;2023-03-12T03:31:58;7.82;;;4.32;;
24547;SDS011;12713;51.624;4.924;2023-03-12T03:34:24;11.60;;;5.05;;
24547;SDS011;12713;51.624;4.924;2023-03-12T03:36:50;11.68;;;5.63;;
24547;SDS011;12713;51.624;4.924;2023-03-12T03:39:16;8.80;;;5.50;;
24547;SDS011;12713;51.624;4.924;2023-03-12T03:41:42;15.35;;;6.00;;
24547;SDS011;12713;51.624;4.924;2023-03-12T03:44:11;10.93;;;5.22;;
24547;SDS011;12713;51.624;4.924;2023-03-12T03:46:37;12.40;;;5.07;;
24547;SDS011;12713;51.624;4.924;2023-03-12T03:49:03;13.50;;;5.15;;
24547;SDS011;12713;51.624;4.924;2023-03-12T03:51:29;10.35;;;4.85;;
24547;SDS011;12713;51.624;4.924;2023-03-12T03:53:55;11.02;;;5.43;;
24547;SDS011;12713;51.624;4.924;2023-03-12T03:56:22;12.15;;;5.20;;
24547;SDS011;12713;51.624;4.924;2023-03-12T03:58:48;8.68;;;4.82;;
24547;SDS011;12713;51.624;4.924;2023-03-12T04:01:14;9.93;;;5.10;;
24547;SDS011;12713;51.624;4.924;2023-03-12T04:03:40;11.95;;;5.22;;
24547;SDS011;12713;51.624;4.924;2023-03-12T04:06:06;10.23;;;5.40;;
24547;SDS011;12713;51.624;4.924;2023-03-12T04:08:33;7.75;;;5.03;;
24547;SDS011;12713;51.624;4.924;2023-03-12T04:11:07;9.98;;;5.25;;
24547;SDS011;12713;51.624;4.924;2023-03-12T04:13:33;11.93;;;5.55;;
24547;SDS011;12713;51.624;4.924;2023-03-12T04:16:00;9.75;;;5.47;;
24547;SDS011;12713;51.624;4.924;2023-03-12T04:18:26;12.70;;;5.90;;
24547;SDS011;12713;51.624;4.924;2023-03-12T04:20:52;14.60;;;7.40;;
24547;SDS011;12713;51.624;4.924;2023-03-12T04:23:18;14.38;;;6.57;;
24547;SDS011;12713;51.624;4.924;2023-03-12T04:25:44;14.32;;;6.25;;
24547;SDS011;12713;51.624;4.924;2023-03-12T04:28:10;17.15;;;6.90;;
24547;SDS011;12713;51.624;4.924;2023-03-12T04:30:36;13.00;;;7.22;;
24547;SDS011;12713;51.624;4.924;2023-03-12T04:33:03;14.32;;;6.82;;
24547;SDS011;12713;51.624;4.924;2023-03-12T04:35:29;14.90;;;7.15;;
24547;SDS011;12713;51.624;4.924;2023-03-12T04:37:55;15.02;;;7.10;;
24547;SDS011;12713;51.624;4.924;2023-03-12T04:40:21;12.40;;;7.35;;
24547;SDS011;12713;51.624;4.924;2023-03-12T04:42:47;14.25;;;7.28;;
24547;SDS011;12713;51.624;4.924;2023-03-12T04:45:13;13.23;;;6.93;;
24547;SDS011;12713;51.624;4.924;2023-03-12T04:47:39;12.65;;;7.05;;
24547;SDS011;12713;51.624;4.924;2023-03-12T04:50:05;15.60;;;6.82;;
24547;SDS011;12713;51.624;4.924;2023-03-12T04:52:32;14.25;;;6.97;;
24547;SDS011;12713;51.624;4.924;2023-03-12T04:54:58;10.07;;;6.15;;
24547;SDS011;12713;51.624;4.924;2023-03-12T04:57:24;17.90;;;8.43;;
24547;SDS011;12713;51.624;4.924;2023-03-12T04:59:50;14.35;;;7.85;;
24547;SDS011;12713;51.624;4.924;2023-03-12T05:02:16;15.90;;;6.93;;
24547;SDS011;12713;51.624;4.924;2023-03-12T05:04:42;13.68;;;7.15;;
24547;SDS011;12713;51.624;4.924;2023-03-12T05:07:08;12.32;;;8.20;;
24547;SDS011;12713;51.624;4.924;2023-03-12T05:09:34;12.35;;;7.13;;
24547;SDS011;12713;51.624;4.924;2023-03-12T05:12:00;13.82;;;7.93;;
24547;SDS011;12713;51.624;4.924;2023-03-12T05:14:27;14.55;;;7.05;;
24547;SDS011;12713;51.624;4.924;2023-03-12T05:16:53;14.93;;;7.72;;
24547;SDS011;12713;51.624;4.924;2023-03-12T05:19:19;15.88;;;7.60;;
24547;SDS011;12713;51.624;4.924;2023-03-12T05:21:45;12.48;;;7.43;;
24547;SDS011;12713;51.624;4.924;2023-03-12T05:24:11;14.23;;;7.00;;
24547;SDS011;12713;51.624;4.924;2023-03-12T05:26:37;13.07;;;7.07;;
24547;SDS011;12713;51.624;4.924;2023-03-12T05:29:03;16.23;;;7.35;;
24547;SDS011;12713;51.624;4.924;2023-03-12T05:31:30;10.90;;;7.18;;
24547;SDS011;12713;51.624;4.924;2023-03-12T05:33:57;15.60;;;7.47;;
24547;SDS011;12713;51.624;4.924;2023-03-12T05:36:23;12.68;;;7.43;;
24547;SDS011;12713;51.624;4.924;2023-03-12T05:38:49;13.32;;;7.93;;
24547;SDS011;12713;51.624;4.924;2023-03-12T05:41:20;13.65;;;7.57;;
24547;SDS011;12713;51.624;4.924;2023-03-12T05:43:46;14.25;;;8.13;;
24547;SDS011;12713;51.624;4.924;2023-03-12T05:46:12;19.33;;;9.80;;
24547;SDS011;12713;51.624;4.924;2023-03-12T05:48:39;14.15;;;7.70;;
24547;SDS011;12713;51.624;4.924;2023-03-12T05:51:05;14.10;;;7.80;;
24547;SDS011;12713;51.624;4.924;2023-03-12T05:53:31;15.65;;;7.45;;
24547;SDS011;12713;51.624;4.924;2023-03-12T05:56:03;15.07;;;7.85;;
24547;SDS011;12713;51.624;4.924;2023-03-12T05:58:30;15.55;;;8.88;;
24547;SDS011;12713;51.624;4.924;2023-03-12T06:00:56;12.88;;;8.30;;
24547;SDS011;12713;51.624;4.924;2023-03-12T06:03:22;17.70;;;8.07;;
24547;SDS011;12713;51.624;4.924;2023-03-12T06:05:49;17.50;;;8.88;;
24547;SDS011;12713;51.624;4.924;2023-03-12T06:08:19;14.45;;;8.13;;
24547;SDS011;12713;51.624;4.924;2023-03-12T06:10:45;18.90;;;9.50;;
24547;SDS011;12713;51.624;4.924;2023-03-12T06:13:11;14.60;;;9.02;;
24547;SDS011;12713;51.624;4.924;2023-03-12T06:15:37;16.00;;;10.40;;
24547;SDS011;12713;51.624;4.924;2023-03-12T06:18:03;24.88;;;10.35;;
24547;SDS011;12713;51.624;4.924;2023-03-12T06:20:29;16.15;;;9.93;;
24547;SDS011;12713;51.624;4.924;2023-03-12T06:22:55;16.95;;;9.68;;
24547;SDS011;12713;51.624;4.924;2023-03-12T06:25:21;18.38;;;10.43;;
24547;SDS011;12713;51.624;4.924;2023-03-12T06:27:47;18.85;;;10.57;;
24547;SDS011;12713;51.624;4.924;2023-03-12T06:30:14;18.38;;;11.55;;
24547;SDS011;12713;51.624;4.924;2023-03-12T06:32:40;21.50;;;10.80;;
24547;SDS011;12713;51.624;4.924;2023-03-12T06:35:06;25.08;;;11.82;;
24547;SDS011;12713;51.624;4.924;2023-03-12T06:37:32;22.17;;;12.63;;
24547;SDS011;12713;51.624;4.924;2023-03-12T06:39:58;20.50;;;12.98;;
24547;SDS011;12713;51.624;4.924;2023-03-12T06:42:24;19.42;;;10.35;;
24547;SDS011;12713;51.624;4.924;2023-03-12T06:44:50;20.23;;;10.10;;
24547;SDS011;12713;51.624;4.924;2023-03-12T06:47:17;20.23;;;11.35;;
24547;SDS011;12713;51.624;4.924;2023-03-12T06:49:43;21.20;;;10.90;;
24547;SDS011;12713;51.624;4.924;2023-03-12T06:52:09;25.25;;;13.10;;
24547;SDS011;12713;51.624;4.924;2023-03-12T06:54:35;27.33;;;14.88;;
24547;SDS011;12713;51.624;4.924;2023-03-12T06:57:01;22.83;;;14.07;;
24547;SDS011;12713;51.624;4.924;2023-03-12T06:59:27;26.10;;;15.25;;
24547;SDS011;12713;51.624;4.924;2023-03-12T07:01:53;27.08;;;15.20;;
24547;SDS011;12713;51.624;4.924;2023-03-12T07:04:19;22.42;;;13.75;;
24547;SDS011;12713;51.624;4.924;2023-03-12T07:06:45;26.67;;;14.80;;
24547;SDS011;12713;51.624;4.924;2023-03-12T07:09:14;24.35;;;13.70;;
24547;SDS011;12713;51.624;4.924;2023-03-12T07:11:41;26.13;;;12.82;;
24547;SDS011;12713;51.624;4.924;2023-03-12T07:14:07;26.08;;;14.93;;
24547;SDS011;12713;51.624;4.924;2023-03-12T07:16:33;24.42;;;13.60;;
24547;SDS011;12713;51.624;4.924;2023-03-12T07:18:59;26.50;;;12.88;;
24547;SDS011;12713;51.624;4.924;2023-03-12T07:21:26;24.45;;;13.50;;
24547;SDS011;12713;51.624;4.924;2023-03-12T07:23:52;22.83;;;13.65;;
24547;SDS011;12713;51.624;4.924;2023-03-12T07:26:18;21.95;;;12.77;;
24547;SDS011;12713;51.624;4.924;2023-03-12T07:28:44;20.33;;;12.93;;
24547;SDS011;12713;51.624;4.924;2023-03-12T07:31:11;24.10;;;13.65;;
24547;SDS011;12713;51.624;4.924;2023-03-12T07:33:37;24.42;;;14.55;;
24547;SDS011;12713;51.624;4.924;2023-03-12T07:36:03;25.42;;;13.73;;
24547;SDS011;12713;51.624;4.924;2023-03-12T07:38:29;24.95;;;14.30;;
24547;SDS011;12713;51.624;4.924;2023-03-12T07:40:56;20.33;;;13.88;;
24547;SDS011;12713;51.624;4.924;2023-03-12T07:43:23;22.75;;;14.70;;
24547;SDS011;12713;51.624;4.924;2023-03-12T07:45:49;23.20;;;14.30;;
24547;SDS011;12713;51.624;4.924;2023-03-12T07:48:15;27.67;;;14.35;;
24547;SDS011;12713;51.624;4.924;2023-03-12T07:50:43;21.60;;;14.65;;
24547;SDS011;12713;51.624;4.924;2023-03-12T07:53:09;28.75;;;15.80;;
24547;SDS011;12713;51.624;4.924;2023-03-12T07:55:35;25.48;;;15.05;;
24547;SDS011;12713;51.624;4.924;2023-03-12T07:58:02;25.30;;;14.52;;
24547;SDS011;12713;51.624;4.924;2023-03-12T08:00:28;26.40;;;15.68;;
24547;SDS011;12713;51.624;4.924;2023-03-12T08:02:54;25.98;;;16.20;;
24547;SDS011;12713;51.624;4.924;2023-03-12T08:05:20;29.98;;;16.13;;
24547;SDS011;12713;51.624;4.924;2023-03-12T08:07:49;25.15;;;17.15;;
24547;SDS011;12713;51.624;4.924;2023-03-12T08:10:15;29.77;;;17.40;;
24547;SDS011;12713;51.624;4.924;2023-03-12T08:12:41;29.77;;;19.75;;
24547;SDS011;12713;51.624;4.924;2023-03-12T08:15:08;27.75;;;18.88;;
24547;SDS011;12713;51.624;4.924;2023-03-12T08:17:36;32.05;;;18.77;;
24547;SDS011;12713;51.624;4.924;2023-03-12T08:20:02;38.58;;;20.60;;
24547;SDS011;12713;51.624;4.924;2023-03-12T08:22:29;30.00;;;19.65;;
24547;SDS011;12713;51.624;4.924;2023-03-12T08:24:55;32.42;;;20.65;;
24547;SDS011;12713;51.624;4.924;2023-03-12T08:27:21;40.22;;;23.27;;
24547;SDS011;12713;51.624;4.924;2023-03-12T08:29:47;36.97;;;24.70;;
24547;SDS011;12713;51.624;4.924;2023-03-12T08:32:13;40.20;;;25.48;;
24547;SDS011;12713;51.624;4.924;2023-03-12T08:34:39;43.13;;;25.42;;
24547;SDS011;12713;51.624;4.924;2023-03-12T08:37:05;43.75;;;28.02;;
24547;SDS011;12713;51.624;4.924;2023-03-12T08:39:31;48.38;;;27.33;;
24547;SDS011;12713;51.624;4.924;2023-03-12T08:41:58;51.03;;;28.88;;
24547;SDS011;12713;51.624;4.924;2023-03-12T08:44:24;48.58;;;29.35;;
24547;SDS011;12713;51.624;4.924;2023-03-12T08:46:50;52.92;;;29.42;;
24547;SDS011;12713;51.624;4.924;2023-03-12T08:49:16;56.58;;;30.98;;
24547;SDS011;12713;51.624;4.924;2023-03-12T08:51:43;54.33;;;30.42;;
24547;SDS011;12713;51.624;4.924;2023-03-12T08:54:09;55.15;;;32.35;;
24547;SDS011;12713;51.624;4.924;2023-03-12T08:56:35;64.88;;;33.58;;
24547;SDS011;12713;51.624;4.924;2023-03-12T08:59:05;61.05;;;34.33;;
24547;SDS011;12713;51.624;4.924;2023-03-12T09:01:31;59.50;;;32.33;;
24547;SDS011;12713;51.624;4.924;2023-03-12T09:03:57;68.88;;;35.80;;
24547;SDS011;12713;51.624;4.924;2023-03-12T09:06:23;60.45;;;34.63;;
24547;SDS011;12713;51.624;4.924;2023-03-12T09:08:50;74.60;;;38.33;;
24547;SDS011;12713;51.624;4.924;2023-03-12T09:11:17;74.60;;;36.60;;
24547;SDS011;12713;51.624;4.924;2023-03-12T09:13:43;66.22;;;36.13;;
24547;SDS011;12713;51.624;4.924;2023-03-12T09:16:09;70.78;;;37.50;;
24547;SDS011;12713;51.624;4.924;2023-03-12T09:18:35;67.68;;;37.15;;
24547;SDS011;12713;51.624;4.924;2023-03-12T09:21:04;70.93;;;37.33;;
24547;SDS011;12713;51.624;4.924;2023-03-12T09:23:30;67.78;;;36.35;;
24547;SDS011;12713;51.624;4.924;2023-03-12T09:25:56;64.18;;;34.50;;
24547;SDS011;12713;51.624;4.924;2023-03-12T09:28:23;62.55;;;36.05;;
24547;SDS011;12713;51.624;4.924;2023-03-12T09:30:49;67.32;;;34.72;;
24547;SDS011;12713;51.624;4.924;2023-03-12T09:33:15;64.32;;;33.42;;
24547;SDS011;12713;51.624;4.924;2023-03-12T09:35:42;65.18;;;33.95;;
24547;SDS011;12713;51.624;4.924;2023-03-12T09:38:11;59.53;;;32.10;;
24547;SDS011;12713;51.624;4.924;2023-03-12T09:40:37;60.33;;;31.88;;
24547;SDS011;12713;51.624;4.924;2023-03-12T09:43:09;61.70;;;29.77;;
24547;SDS011;12713;51.624;4.924;2023-03-12T09:45:42;51.35;;;28.33;;
24547;SDS011;12713;51.624;4.924;2023-03-12T09:48:22;54.95;;;25.83;;
24547;SDS011;12713;51.624;4.924;2023-03-12T09:50:49;55.55;;;27.08;;
24547;SDS011;12713;51.624;4.924;2023-03-12T09:55:49;57.38;;;24.85;;
24547;SDS011;12713;51.624;4.924;2023-03-12T09:58:21;53.80;;;24.98;;
24547;SDS011;12713;51.624;4.924;2023-03-12T10:00:51;51.22;;;22.08;;
24547;SDS011;12713;51.624;4.924;2023-03-12T10:03:22;45.92;;;21.52;;
24547;SDS011;12713;51.624;4.924;2023-03-12T10:05:59;50.90;;;21.63;;
24547;SDS011;12713;51.624;4.924;2023-03-12T10:08:32;56.97;;;21.55;;
24547;SDS011;12713;51.624;4.924;2023-03-12T10:19:13;57.00;;;21.20;;
24547;SDS011;12713;51.624;4.924;2023-03-12T10:21:53;50.22;;;19.88;;
24547;SDS011;12713;51.624;4.924;2023-03-12T10:27:10;49.13;;;18.50;;
24547;SDS011;12713;51.624;4.924;2023-03-12T10:29:38;49.67;;;20.80;;
24547;SDS011;12713;51.624;4.924;2023-03-12T10:32:06;55.38;;;19.30;;
24547;SDS011;12713;51.624;4.924;2023-03-12T10:34:39;51.50;;;18.20;;
24547;SDS011;12713;51.624;4.924;2023-03-12T10:37:24;56.40;;;19.85;;
24547;SDS011;12713;51.624;4.924;2023-03-12T10:39:51;48.60;;;19.25;;
24547;SDS011;12713;51.624;4.924;2023-03-12T10:42:19;50.95;;;19.98;;
24547;SDS011;12713;51.624;4.924;2023-03-12T10:44:46;51.70;;;19.15;;
24547;SDS011;12713;51.624;4.924;2023-03-12T10:47:17;48.97;;;19.45;;
24547;SDS011;12713;51.624;4.924;2023-03-12T10:49:48;50.03;;;17.88;;
24547;SDS011;12713;51.624;4.924;2023-03-12T10:52:16;49.67;;;15.52;;
24547;SDS011;12713;51.624;4.924;2023-03-12T10:54:43;53.38;;;15.90;;
24547;SDS011;12713;51.624;4.924;2023-03-12T10:57:10;46.42;;;14.50;;
24547;SDS011;12713;51.624;4.924;2023-03-12T10:59:37;48.78;;;15.13;;
24547;SDS011;12713;51.624;4.924;2023-03-12T11:04:51;48.47;;;11.65;;
24547;SDS011;12713;51.624;4.924;2023-03-12T11:07:20;43.80;;;11.20;;
24547;SDS011;12713;51.624;4.924;2023-03-12T11:10:02;35.97;;;9.80;;
24547;SDS011;12713;51.624;4.924;2023-03-12T11:12:29;48.35;;;11.10;;
24547;SDS011;12713;51.624;4.924;2023-03-12T11:15:01;41.75;;;9.20;;
24547;SDS011;12713;51.624;4.924;2023-03-12T11:22:46;44.30;;;10.68;;
24547;SDS011;12713;51.624;4.924;2023-03-12T11:25:22;43.38;;;9.43;;
24547;SDS011;12713;51.624;4.924;2023-03-12T11:27:50;38.17;;;10.25;;
24547;SDS011;12713;51.624;4.924;2023-03-12T11:30:22;44.53;;;8.63;;
24547;SDS011;12713;51.624;4.924;2023-03-12T11:32:48;33.20;;;8.68;;
24547;SDS011;12713;51.624;4.924;2023-03-12T11:35:16;52.60;;;9.00;;
24547;SDS011;12713;51.624;4.924;2023-03-12T11:45:29;32.47;;;6.50;;
24547;SDS011;12713;51.624;4.924;2023-03-12T11:56:14;29.70;;;6.47;;
24547;SDS011;12713;51.624;4.924;2023-03-12T12:01:20;35.50;;;7.88;;
24547;SDS011;12713;51.624;4.924;2023-03-12T12:09:00;30.48;;;6.60;;
24547;SDS011;12713;51.624;4.924;2023-03-12T12:13:58;29.60;;;8.55;;
24547;SDS011;12713;51.624;4.924;2023-03-12T12:27:19;33.33;;;10.05;;
24547;SDS011;12713;51.624;4.924;2023-03-12T12:29:55;31.55;;;8.45;;
24547;SDS011;12713;51.624;4.924;2023-03-12T12:32:52;26.67;;;7.40;;
24547;SDS011;12713;51.624;4.924;2023-03-12T12:40:19;43.15;;;7.45;;
24547;SDS011;12713;51.624;4.924;2023-03-12T12:43:20;27.35;;;6.82;;
24547;SDS011;12713;51.624;4.924;2023-03-12T12:45:32;36.30;;;8.18;;
24547;SDS011;12713;51.624;4.924;2023-03-12T12:47:59;36.75;;;7.00;;
24547;SDS011;12713;51.624;4.924;2023-03-12T12:50:28;26.05;;;5.70;;
24547;SDS011;12713;51.624;4.924;2023-03-12T12:52:57;27.08;;;7.38;;
24547;SDS011;12713;51.624;4.924;2023-03-12T12:55:27;28.98;;;6.72;;
24547;SDS011;12713;51.624;4.924;2023-03-12T12:57:59;35.88;;;6.82;;
24547;SDS011;12713;51.624;4.924;2023-03-12T13:03:16;28.48;;;5.88;;
24547;SDS011;12713;51.624;4.924;2023-03-12T13:06:04;26.50;;;5.63;;
24547;SDS011;12713;51.624;4.924;2023-03-12T13:10:58;28.10;;;6.75;;
24547;SDS011;12713;51.624;4.924;2023-03-12T13:13:28;34.78;;;6.63;;
24547;SDS011;12713;51.624;4.924;2023-03-12T13:18:44;24.77;;;5.28;;
24547;SDS011;12713;51.624;4.924;2023-03-12T13:26:35;29.02;;;6.65;;
24547;SDS011;12713;51.624;4.924;2023-03-12T13:29:12;24.17;;;5.00;;
24547;SDS011;12713;51.624;4.924;2023-03-12T13:31:44;26.38;;;6.10;;
24547;SDS011;12713;51.624;4.924;2023-03-12T13:36:46;26.77;;;5.68;;
24547;SDS011;12713;51.624;4.924;2023-03-12T13:41:54;26.00;;;5.97;;
24547;SDS011;12713;51.624;4.924;2023-03-12T13:49:42;38.50;;;5.72;;
24547;SDS011;12713;51.624;4.924;2023-03-12T13:54:41;31.23;;;5.90;;
24547;SDS011;12713;51.624;4.924;2023-03-12T13:59:50;29.95;;;6.13;;
24547;SDS011;12713;51.624;4.924;2023-03-12T14:02:36;35.63;;;6.32;;
24547;SDS011;12713;51.624;4.924;2023-03-12T14:05:04;32.92;;;6.55;;
24547;SDS011;12713;51.624;4.924;2023-03-12T14:17:33;37.72;;;6.15;;
24547;SDS011;12713;51.624;4.924;2023-03-12T14:22:36;28.63;;;6.18;;
24547;SDS011;12713;51.624;4.924;2023-03-12T14:27:48;24.67;;;5.65;;
24547;SDS011;12713;51.624;4.924;2023-03-12T14:32:40;29.02;;;5.75;;
24547;SDS011;12713;51.624;4.924;2023-03-12T14:35:31;27.67;;;5.63;;
24547;SDS011;12713;51.624;4.924;2023-03-12T14:38:04;28.60;;;6.43;;
24547;SDS011;12713;51.624;4.924;2023-03-12T14:40:39;29.90;;;5.82;;
24547;SDS011;12713;51.624;4.924;2023-03-12T14:43:27;33.05;;;5.65;;
24547;SDS011;12713;51.624;4.924;2023-03-12T14:45:54;32.55;;;5.68;;
24547;SDS011;12713;51.624;4.924;2023-03-12T14:48:22;31.90;;;6.97;;
24547;SDS011;12713;51.624;4.924;2023-03-12T14:50:51;34.42;;;6.47;;
24547;SDS011;12713;51.624;4.924;2023-03-12T14:53:21;30.40;;;6.00;;
24547;SDS011;12713;51.624;4.924;2023-03-12T14:58:47;31.45;;;6.85;;
24547;SDS011;12713;51.624;4.924;2023-03-12T15:01:16;28.50;;;6.20;;
24547;SDS011;12713;51.624;4.924;2023-03-12T15:03:46;32.90;;;6.30;;
24547;SDS011;12713;51.624;4.924;2023-03-12T15:06:17;31.38;;;6.57;;
24547;SDS011;12713;51.624;4.924;2023-03-12T15:08:43;32.00;;;6.28;;
24547;SDS011;12713;51.624;4.924;2023-03-12T15:11:10;38.85;;;7.07;;
24547;SDS011;12713;51.624;4.924;2023-03-12T15:13:36;38.05;;;7.15;;
24547;SDS011;12713;51.624;4.924;2023-03-12T15:16:03;33.50;;;6.13;;
24547;SDS011;12713;51.624;4.924;2023-03-12T15:18:30;34.85;;;7.70;;
24547;SDS011;12713;51.624;4.924;2023-03-12T15:20:57;37.92;;;7.43;;
24547;SDS011;12713;51.624;4.924;2023-03-12T15:23:24;31.92;;;7.22;;
24547;SDS011;12713;51.624;4.924;2023-03-12T15:28:35;41.33;;;7.25;;
24547;SDS011;12713;51.624;4.924;2023-03-12T15:31:11;36.95;;;7.22;;
24547;SDS011;12713;51.624;4.924;2023-03-12T15:33:41;33.97;;;7.10;;
24547;SDS011;12713;51.624;4.924;2023-03-12T15:38:43;43.40;;;7.80;;
24547;SDS011;12713;51.624;4.924;2023-03-12T15:41:16;31.67;;;6.10;;
24547;SDS011;12713;51.624;4.924;2023-03-12T15:46:09;29.27;;;7.57;;
24547;SDS011;12713;51.624;4.924;2023-03-12T15:48:39;34.03;;;6.80;;
24547;SDS011;12713;51.624;4.924;2023-03-12T15:51:12;33.53;;;7.85;;
24547;SDS011;12713;51.624;4.924;2023-03-12T15:58:40;35.92;;;7.90;;
24547;SDS011;12713;51.624;4.924;2023-03-12T16:01:07;39.60;;;8.57;;
24547;SDS011;12713;51.624;4.924;2023-03-12T16:03:33;24.95;;;6.28;;
24547;SDS011;12713;51.624;4.924;2023-03-12T16:05:59;34.10;;;7.03;;
24547;SDS011;12713;51.624;4.924;2023-03-12T16:08:26;33.28;;;7.00;;
24547;SDS011;12713;51.624;4.924;2023-03-12T16:10:54;36.22;;;7.47;;
24547;SDS011;12713;51.624;4.924;2023-03-12T16:13:21;43.65;;;7.38;;
24547;SDS011;12713;51.624;4.924;2023-03-12T16:15:50;33.42;;;7.32;;
24547;SDS011;12713;51.624;4.924;2023-03-12T16:18:17;30.38;;;7.40;;
24547;SDS011;12713;51.624;4.924;2023-03-12T16:20:44;39.92;;;7.05;;
24547;SDS011;12713;51.624;4.924;2023-03-12T16:23:10;37.70;;;6.93;;
24547;SDS011;12713;51.624;4.924;2023-03-12T16:25:36;37.40;;;7.05;;
24547;SDS011;12713;51.624;4.924;2023-03-12T16:28:03;34.55;;;6.63;;
24547;SDS011;12713;51.624;4.924;2023-03-12T16:30:31;31.58;;;6.65;;
24547;SDS011;12713;51.624;4.924;2023-03-12T16:32:57;34.47;;;7.10;;
24547;SDS011;12713;51.624;4.924;2023-03-12T16:35:24;30.35;;;7.20;;
24547;SDS011;12713;51.624;4.924;2023-03-12T16:37:51;32.50;;;7.18;;
24547;SDS011;12713;51.624;4.924;2023-03-12T16:40:18;39.60;;;6.88;;
24547;SDS011;12713;51.624;4.924;2023-03-12T16:42:45;34.38;;;7.20;;
24547;SDS011;12713;51.624;4.924;2023-03-12T16:45:12;25.75;;;7.18;;
24547;SDS011;12713;51.624;4.924;2023-03-12T16:47:39;26.05;;;5.93;;